sensor_id;sensor_type;location;lat;lon;timestamp;temperature;humidity
70246;SHT30;57637;49.272;8.590;2023-06-22T00:01:50;22.27;76.43
70246;SHT30;57637;49.272;8.590;2023-06-22T00:04:16;22.28;76.49
70246;SHT30;57637;49.272;8.590;2023-06-22T00:06:41;22.31;76.46
70246;SHT30;57637;49.272;8.590;2023-06-22T00:09:06;22.18;76.77
70246;SHT30;57637;49.272;8.590;2023-06-22T00:11:35;22.25;76.36
70246;SHT30;57637;49.272;8.590;2023-06-22T00:14:01;22.25;76.29
70246;SHT30;57637;49.272;8.590;2023-06-22T00:16:26;22.31;75.95
70246;SHT30;57637;49.272;8.590;2023-06-22T00:18:52;22.24;75.77
70246;SHT30;57637;49.272;8.590;2023-06-22T00:21:17;22.28;75.61
70246;SHT30;57637;49.272;8.590;2023-06-22T00:23:45;22.39;75.19
70246;SHT30;57637;49.272;8.590;2023-06-22T00:26:10;22.34;75.45
70246;SHT30;57637;49.272;8.590;2023-06-22T00:28:36;22.32;75.63
70246;SHT30;57637;49.272;8.590;2023-06-22T00:31:01;22.05;77.81
70246;SHT30;57637;49.272;8.590;2023-06-22T00:33:27;21.91;78.76
70246;SHT30;57637;49.272;8.590;2023-06-22T00:35:53;21.88;79.13
70246;SHT30;57637;49.272;8.590;2023-06-22T00:38:19;21.81;79.67
70246;SHT30;57637;49.272;8.590;2023-06-22T00:40:45;21.81;79.37
70246;SHT30;57637;49.272;8.590;2023-06-22T00:43:11;21.83;78.65
70246;SHT30;57637;49.272;8.590;2023-06-22T00:45:36;21.91;78.11
70246;SHT30;57637;49.272;8.590;2023-06-22T00:48:03;22.08;77.55
70246;SHT30;57637;49.272;8.590;2023-06-22T00:50:34;22.11;77.51
70246;SHT30;57637;49.272;8.590;2023-06-22T00:53:04;22.18;77.48
70246;SHT30;57637;49.272;8.590;2023-06-22T00:55:37;21.96;79.17
70246;SHT30;57637;49.272;8.590;2023-06-22T00:58:08;21.78;80.50
70246;SHT30;57637;49.272;8.590;2023-06-22T01:00:35;21.39;81.85
70246;SHT30;57637;49.272;8.590;2023-06-22T01:03:02;20.96;82.74
70246;SHT30;57637;49.272;8.590;2023-06-22T01:05:28;20.91;83.35
70246;SHT30;57637;49.272;8.590;2023-06-22T01:10:45;21.12;83.12
70246;SHT30;57637;49.272;8.590;2023-06-22T01:13:37;21.22;83.18
70246;SHT30;57637;49.272;8.590;2023-06-22T01:16:44;21.23;83.17
70246;SHT30;57637;49.272;8.590;2023-06-22T01:22:06;21.09;83.27
70246;SHT30;57637;49.272;8.590;2023-06-22T01:29:55;20.99;84.54
70246;SHT30;57637;49.272;8.590;2023-06-22T01:32:26;20.92;83.94
70246;SHT30;57637;49.272;8.590;2023-06-22T01:34:57;21.00;83.68
70246;SHT30;57637;49.272;8.590;2023-06-22T01:37:25;21.12;83.50
70246;SHT30;57637;49.272;8.590;2023-06-22T01:39:52;21.13;83.19
70246;SHT30;57637;49.272;8.590;2023-06-22T01:42:20;21.29;83.06
70246;SHT30;57637;49.272;8.590;2023-06-22T01:44:46;21.02;83.39
70246;SHT30;57637;49.272;8.590;2023-06-22T01:47:12;20.65;84.46
70246;SHT30;57637;49.272;8.590;2023-06-22T01:49:39;20.40;85.41
70246;SHT30;57637;49.272;8.590;2023-06-22T01:52:06;20.23;86.02
70246;SHT30;57637;49.272;8.590;2023-06-22T01:54:32;20.18;86.60
70246;SHT30;57637;49.272;8.590;2023-06-22T01:56:57;20.24;86.68
70246;SHT30;57637;49.272;8.590;2023-06-22T02:02:07;20.23;86.81
70246;SHT30;57637;49.272;8.590;2023-06-22T02:07:05;20.35;86.70
70246;SHT30;57637;49.272;8.590;2023-06-22T02:09:37;20.34;86.49
70246;SHT30;57637;49.272;8.590;2023-06-22T02:12:07;20.31;86.50
70246;SHT30;57637;49.272;8.590;2023-06-22T02:14:35;20.34;86.48
70246;SHT30;57637;49.272;8.590;2023-06-22T02:17:01;20.33;86.48
70246;SHT30;57637;49.272;8.590;2023-06-22T02:19:27;20.35;86.49
70246;SHT30;57637;49.272;8.590;2023-06-22T02:21:53;20.35;86.48
70246;SHT30;57637;49.272;8.590;2023-06-22T02:24:18;20.47;86.36
70246;SHT30;57637;49.272;8.590;2023-06-22T02:26:43;20.34;86.72
70246;SHT30;57637;49.272;8.590;2023-06-22T02:29:10;20.12;88.16
70246;SHT30;57637;49.272;8.590;2023-06-22T02:31:36;19.97;88.91
70246;SHT30;57637;49.272;8.590;2023-06-22T02:34:01;19.86;89.32
70246;SHT30;57637;49.272;8.590;2023-06-22T02:36:27;19.76;89.40
70246;SHT30;57637;49.272;8.590;2023-06-22T02:38:55;19.70;89.56
70246;SHT30;57637;49.272;8.590;2023-06-22T02:41:25;19.72;89.41
70246;SHT30;57637;49.272;8.590;2023-06-22T02:43:51;19.79;89.36
70246;SHT30;57637;49.272;8.590;2023-06-22T02:46:16;19.63;89.29
70246;SHT30;57637;49.272;8.590;2023-06-22T02:48:41;19.46;89.93
70246;SHT30;57637;49.272;8.590;2023-06-22T02:51:07;19.43;90.24
70246;SHT30;57637;49.272;8.590;2023-06-22T02:53:33;19.56;90.28
70246;SHT30;57637;49.272;8.590;2023-06-22T02:55:58;19.72;90.18
70246;SHT30;57637;49.272;8.590;2023-06-22T02:58:26;19.55;89.84
70246;SHT30;57637;49.272;8.590;2023-06-22T03:00:51;19.56;90.04
70246;SHT30;57637;49.272;8.590;2023-06-22T03:03:18;19.61;90.04
70246;SHT30;57637;49.272;8.590;2023-06-22T03:05:44;19.67;89.86
70246;SHT30;57637;49.272;8.590;2023-06-22T03:08:10;19.62;89.66
70246;SHT30;57637;49.272;8.590;2023-06-22T03:10:35;19.59;89.61
70246;SHT30;57637;49.272;8.590;2023-06-22T03:13:01;19.76;89.88
70246;SHT30;57637;49.272;8.590;2023-06-22T03:15:26;19.66;89.55
70246;SHT30;57637;49.272;8.590;2023-06-22T03:17:54;19.53;89.79
70246;SHT30;57637;49.272;8.590;2023-06-22T03:20:20;19.38;90.11
70246;SHT30;57637;49.272;8.590;2023-06-22T03:22:45;19.33;90.35
70246;SHT30;57637;49.272;8.590;2023-06-22T03:25:11;19.31;90.51
70246;SHT30;57637;49.272;8.590;2023-06-22T03:27:38;19.35;90.45
70246;SHT30;57637;49.272;8.590;2023-06-22T03:30:05;19.36;90.32
70246;SHT30;57637;49.272;8.590;2023-06-22T03:32:32;19.38;90.13
70246;SHT30;57637;49.272;8.590;2023-06-22T03:34:57;19.45;89.89
70246;SHT30;57637;49.272;8.590;2023-06-22T03:37:24;19.45;89.48
70246;SHT30;57637;49.272;8.590;2023-06-22T03:39:50;19.48;89.20
70246;SHT30;57637;49.272;8.590;2023-06-22T03:42:16;19.49;88.86
70246;SHT30;57637;49.272;8.590;2023-06-22T03:44:41;19.59;88.93
70246;SHT30;57637;49.272;8.590;2023-06-22T03:47:07;19.55;88.69
70246;SHT30;57637;49.272;8.590;2023-06-22T03:49:33;19.61;88.66
70246;SHT30;57637;49.272;8.590;2023-06-22T03:51:59;19.62;88.35
70246;SHT30;57637;49.272;8.590;2023-06-22T03:54:27;19.62;88.33
70246;SHT30;57637;49.272;8.590;2023-06-22T03:56:56;19.67;88.05
70246;SHT30;57637;49.272;8.590;2023-06-22T03:59:22;19.70;87.82
70246;SHT30;57637;49.272;8.590;2023-06-22T04:01:47;19.83;87.55
70246;SHT30;57637;49.272;8.590;2023-06-22T04:04:13;19.94;87.50
70246;SHT30;57637;49.272;8.590;2023-06-22T04:06:38;19.98;87.43
70246;SHT30;57637;49.272;8.590;2023-06-22T04:09:05;19.86;87.28
70246;SHT30;57637;49.272;8.590;2023-06-22T04:11:31;20.09;87.28
70246;SHT30;57637;49.272;8.590;2023-06-22T04:13:56;19.96;87.16
70246;SHT30;57637;49.272;8.590;2023-06-22T04:16:21;20.01;86.98
70246;SHT30;57637;49.272;8.590;2023-06-22T04:18:47;20.38;86.82
70246;SHT30;57637;49.272;8.590;2023-06-22T04:21:12;20.33;86.10
70246;SHT30;57637;49.272;8.590;2023-06-22T04:23:38;20.37;86.23
70246;SHT30;57637;49.272;8.590;2023-06-22T04:26:04;20.38;86.38
70246;SHT30;57637;49.272;8.590;2023-06-22T04:28:29;20.54;85.72
70246;SHT30;57637;49.272;8.590;2023-06-22T04:30:59;20.92;85.08
70246;SHT30;57637;49.272;8.590;2023-06-22T04:33:27;21.12;83.99
70246;SHT30;57637;49.272;8.590;2023-06-22T04:35:54;21.02;84.44
70246;SHT30;57637;49.272;8.590;2023-06-22T04:38:22;21.13;84.20
70246;SHT30;57637;49.272;8.590;2023-06-22T04:40:47;21.26;84.47
70246;SHT30;57637;49.272;8.590;2023-06-22T04:43:13;20.74;85.11
70246;SHT30;57637;49.272;8.590;2023-06-22T04:45:38;21.32;84.52
70246;SHT30;57637;49.272;8.590;2023-06-22T04:48:04;20.91;84.16
70246;SHT30;57637;49.272;8.590;2023-06-22T04:50:30;20.89;84.94
70246;SHT30;57637;49.272;8.590;2023-06-22T04:52:56;20.41;85.31
70246;SHT30;57637;49.272;8.590;2023-06-22T04:55:21;20.65;85.13
70246;SHT30;57637;49.272;8.590;2023-06-22T04:57:47;20.89;85.09
70246;SHT30;57637;49.272;8.590;2023-06-22T05:02:45;21.35;84.14
70246;SHT30;57637;49.272;8.590;2023-06-22T05:05:12;21.45;84.05
70246;SHT30;57637;49.272;8.590;2023-06-22T05:07:42;21.45;83.52
70246;SHT30;57637;49.272;8.590;2023-06-22T05:10:09;21.56;83.92
70246;SHT30;57637;49.272;8.590;2023-06-22T05:12:37;21.83;83.61
70246;SHT30;57637;49.272;8.590;2023-06-22T05:15:03;21.93;82.79
70246;SHT30;57637;49.272;8.590;2023-06-22T05:17:29;21.84;82.02
70246;SHT30;57637;49.272;8.590;2023-06-22T05:19:54;21.87;82.63
70246;SHT30;57637;49.272;8.590;2023-06-22T05:22:20;21.88;82.34
70246;SHT30;57637;49.272;8.590;2023-06-22T05:24:46;22.20;81.41
70246;SHT30;57637;49.272;8.590;2023-06-22T05:27:11;22.07;81.26
70246;SHT30;57637;49.272;8.590;2023-06-22T05:29:37;22.47;80.65
70246;SHT30;57637;49.272;8.590;2023-06-22T05:32:03;22.75;80.29
70246;SHT30;57637;49.272;8.590;2023-06-22T05:34:28;22.81;80.12
70246;SHT30;57637;49.272;8.590;2023-06-22T05:36:54;23.02;79.11
70246;SHT30;57637;49.272;8.590;2023-06-22T05:39:19;23.31;79.43
70246;SHT30;57637;49.272;8.590;2023-06-22T05:41:45;22.85;78.86
70246;SHT30;57637;49.272;8.590;2023-06-22T05:44:11;22.79;79.99
70246;SHT30;57637;49.272;8.590;2023-06-22T05:46:36;22.99;78.69
70246;SHT30;57637;49.272;8.590;2023-06-22T05:49:02;23.06;79.01
70246;SHT30;57637;49.272;8.590;2023-06-22T05:51:28;23.17;79.36
70246;SHT30;57637;49.272;8.590;2023-06-22T05:53:53;23.40;77.43
70246;SHT30;57637;49.272;8.590;2023-06-22T05:56:18;23.50;77.91
70246;SHT30;57637;49.272;8.590;2023-06-22T05:58:45;23.28;77.89
70246;SHT30;57637;49.272;8.590;2023-06-22T06:01:11;23.46;78.48
70246;SHT30;57637;49.272;8.590;2023-06-22T06:03:37;23.79;77.82
70246;SHT30;57637;49.272;8.590;2023-06-22T06:06:06;23.28;78.30
70246;SHT30;57637;49.272;8.590;2023-06-22T06:08:32;23.84;76.95
70246;SHT30;57637;49.272;8.590;2023-06-22T06:10:57;23.28;77.53
70246;SHT30;57637;49.272;8.590;2023-06-22T06:13:23;23.03;78.55
70246;SHT30;57637;49.272;8.590;2023-06-22T06:15:48;22.90;79.06
70246;SHT30;57637;49.272;8.590;2023-06-22T06:18:16;23.33;77.43
70246;SHT30;57637;49.272;8.590;2023-06-22T06:20:42;23.28;78.60
70246;SHT30;57637;49.272;8.590;2023-06-22T06:23:07;23.40;77.68
70246;SHT30;57637;49.272;8.590;2023-06-22T06:25:33;23.71;78.39
70246;SHT30;57637;49.272;8.590;2023-06-22T06:27:58;23.78;76.46
70246;SHT30;57637;49.272;8.590;2023-06-22T06:30:23;23.74;76.89
70246;SHT30;57637;49.272;8.590;2023-06-22T06:32:49;24.02;76.19
70246;SHT30;57637;49.272;8.590;2023-06-22T06:35:15;23.84;75.81
70246;SHT30;57637;49.272;8.590;2023-06-22T06:37:43;24.32;75.61
70246;SHT30;57637;49.272;8.590;2023-06-22T06:40:13;24.43;75.49
70246;SHT30;57637;49.272;8.590;2023-06-22T06:42:40;24.30;74.90
70246;SHT30;57637;49.272;8.590;2023-06-22T06:45:09;24.87;74.61
70246;SHT30;57637;49.272;8.590;2023-06-22T06:47:35;24.65;73.49
70246;SHT30;57637;49.272;8.590;2023-06-22T06:50:01;25.28;72.75
70246;SHT30;57637;49.272;8.590;2023-06-22T06:52:27;24.36;74.15
70246;SHT30;57637;49.272;8.590;2023-06-22T06:54:53;25.10;73.74
70246;SHT30;57637;49.272;8.590;2023-06-22T06:57:18;24.82;73.24
70246;SHT30;57637;49.272;8.590;2023-06-22T06:59:45;25.16;73.21
70246;SHT30;57637;49.272;8.590;2023-06-22T07:02:11;25.24;72.62
70246;SHT30;57637;49.272;8.590;2023-06-22T07:04:36;25.61;71.77
70246;SHT30;57637;49.272;8.590;2023-06-22T07:07:02;24.98;72.83
70246;SHT30;57637;49.272;8.590;2023-06-22T07:09:28;25.26;72.31
70246;SHT30;57637;49.272;8.590;2023-06-22T07:11:53;25.79;70.92
70246;SHT30;57637;49.272;8.590;2023-06-22T07:14:18;26.35;70.54
70246;SHT30;57637;49.272;8.590;2023-06-22T07:16:44;25.35;71.26
70246;SHT30;57637;49.272;8.590;2023-06-22T07:19:11;25.48;71.76
70246;SHT30;57637;49.272;8.590;2023-06-22T07:21:37;26.10;69.71
70246;SHT30;57637;49.272;8.590;2023-06-22T07:24:04;25.49;70.59
70246;SHT30;57637;49.272;8.590;2023-06-22T07:26:31;25.84;70.51
70246;SHT30;57637;49.272;8.590;2023-06-22T07:28:56;25.35;71.87
70246;SHT30;57637;49.272;8.590;2023-06-22T07:31:23;25.99;69.49
70246;SHT30;57637;49.272;8.590;2023-06-22T07:33:49;26.69;69.47
70246;SHT30;57637;49.272;8.590;2023-06-22T07:36:16;26.42;69.02
70246;SHT30;57637;49.272;8.590;2023-06-22T07:38:42;25.78;71.06
70246;SHT30;57637;49.272;8.590;2023-06-22T07:41:07;26.20;69.47
70246;SHT30;57637;49.272;8.590;2023-06-22T07:43:33;26.09;70.53
70246;SHT30;57637;49.272;8.590;2023-06-22T07:45:59;26.01;68.76
70246;SHT30;57637;49.272;8.590;2023-06-22T07:48:24;26.52;68.23
70246;SHT30;57637;49.272;8.590;2023-06-22T07:50:50;26.70;67.92
70246;SHT30;57637;49.272;8.590;2023-06-22T07:53:17;27.16;65.11
70246;SHT30;57637;49.272;8.590;2023-06-22T07:55:43;27.14;66.63
70246;SHT30;57637;49.272;8.590;2023-06-22T07:58:09;27.16;66.52
70246;SHT30;57637;49.272;8.590;2023-06-22T08:00:35;27.34;66.01
70246;SHT30;57637;49.272;8.590;2023-06-22T08:03:00;27.00;66.23
70246;SHT30;57637;49.272;8.590;2023-06-22T08:05:28;27.54;65.87
70246;SHT30;57637;49.272;8.590;2023-06-22T08:07:54;26.86;66.97
70246;SHT30;57637;49.272;8.590;2023-06-22T08:10:20;27.44;65.33
70246;SHT30;57637;49.272;8.590;2023-06-22T08:12:45;27.51;64.97
70246;SHT30;57637;49.272;8.590;2023-06-22T08:15:11;27.58;64.34
70246;SHT30;57637;49.272;8.590;2023-06-22T08:17:36;27.30;65.14
70246;SHT30;57637;49.272;8.590;2023-06-22T08:20:03;26.65;65.28
70246;SHT30;57637;49.272;8.590;2023-06-22T08:22:34;26.95;65.41
70246;SHT30;57637;49.272;8.590;2023-06-22T08:25:01;27.54;63.98
70246;SHT30;57637;49.272;8.590;2023-06-22T08:27:28;27.42;65.70
70246;SHT30;57637;49.272;8.590;2023-06-22T08:29:54;27.72;63.97
70246;SHT30;57637;49.272;8.590;2023-06-22T08:32:23;27.62;64.30
70246;SHT30;57637;49.272;8.590;2023-06-22T08:34:48;27.52;63.67
70246;SHT30;57637;49.272;8.590;2023-06-22T08:37:14;27.46;64.88
70246;SHT30;57637;49.272;8.590;2023-06-22T08:39:39;27.30;64.97
70246;SHT30;57637;49.272;8.590;2023-06-22T08:42:06;27.81;63.79
70246;SHT30;57637;49.272;8.590;2023-06-22T08:44:31;27.46;64.13
70246;SHT30;57637;49.272;8.590;2023-06-22T08:46:57;27.34;64.65
70246;SHT30;57637;49.272;8.590;2023-06-22T08:49:22;27.70;64.07
70246;SHT30;57637;49.272;8.590;2023-06-22T08:51:47;28.56;62.52
70246;SHT30;57637;49.272;8.590;2023-06-22T08:54:14;29.33;60.42
70246;SHT30;57637;49.272;8.590;2023-06-22T08:56:39;29.48;58.72
70246;SHT30;57637;49.272;8.590;2023-06-22T08:59:05;29.29;58.39
70246;SHT30;57637;49.272;8.590;2023-06-22T09:01:33;29.70;57.96
70246;SHT30;57637;49.272;8.590;2023-06-22T09:03:58;30.35;56.47
70246;SHT30;57637;49.272;8.590;2023-06-22T09:06:25;29.91;57.10
70246;SHT30;57637;49.272;8.590;2023-06-22T09:08:50;30.24;57.00
70246;SHT30;57637;49.272;8.590;2023-06-22T09:11:16;30.74;56.01
70246;SHT30;57637;49.272;8.590;2023-06-22T09:13:41;29.76;57.21
70246;SHT30;57637;49.272;8.590;2023-06-22T09:16:07;30.18;57.20
70246;SHT30;57637;49.272;8.590;2023-06-22T09:18:36;29.66;57.70
70246;SHT30;57637;49.272;8.590;2023-06-22T09:21:01;29.48;57.56
70246;SHT30;57637;49.272;8.590;2023-06-22T09:23:27;29.73;58.02
70246;SHT30;57637;49.272;8.590;2023-06-22T09:25:52;28.92;59.74
70246;SHT30;57637;49.272;8.590;2023-06-22T09:28:18;28.84;59.19
70246;SHT30;57637;49.272;8.590;2023-06-22T09:30:43;28.40;59.83
70246;SHT30;57637;49.272;8.590;2023-06-22T09:33:09;29.09;58.50
70246;SHT30;57637;49.272;8.590;2023-06-22T09:35:35;29.32;57.99
70246;SHT30;57637;49.272;8.590;2023-06-22T09:38:00;29.38;58.22
70246;SHT30;57637;49.272;8.590;2023-06-22T09:40:26;29.26;58.39
70246;SHT30;57637;49.272;8.590;2023-06-22T09:42:51;29.69;58.03
70246;SHT30;57637;49.272;8.590;2023-06-22T09:45:16;29.93;56.95
70246;SHT30;57637;49.272;8.590;2023-06-22T09:47:42;30.45;56.44
70246;SHT30;57637;49.272;8.590;2023-06-22T09:50:07;30.79;55.18
70246;SHT30;57637;49.272;8.590;2023-06-22T09:52:33;29.15;57.41
70246;SHT30;57637;49.272;8.590;2023-06-22T09:54:59;29.40;58.30
70246;SHT30;57637;49.272;8.590;2023-06-22T09:57:24;29.91;57.36
70246;SHT30;57637;49.272;8.590;2023-06-22T09:59:49;30.10;55.28
70246;SHT30;57637;49.272;8.590;2023-06-22T10:02:15;30.31;56.00
70246;SHT30;57637;49.272;8.590;2023-06-22T10:04:40;29.56;56.59
70246;SHT30;57637;49.272;8.590;2023-06-22T10:07:06;29.87;57.19
70246;SHT30;57637;49.272;8.590;2023-06-22T10:09:31;30.21;56.28
70246;SHT30;57637;49.272;8.590;2023-06-22T10:11:56;29.69;57.06
70246;SHT30;57637;49.272;8.590;2023-06-22T10:14:22;29.73;57.72
70246;SHT30;57637;49.272;8.590;2023-06-22T10:16:49;29.83;57.17
70246;SHT30;57637;49.272;8.590;2023-06-22T10:19:14;30.06;56.61
70246;SHT30;57637;49.272;8.590;2023-06-22T10:21:40;29.77;56.59
70246;SHT30;57637;49.272;8.590;2023-06-22T10:24:05;30.06;56.03
70246;SHT30;57637;49.272;8.590;2023-06-22T10:26:35;30.49;54.94
70246;SHT30;57637;49.272;8.590;2023-06-22T10:29:01;30.00;55.84
70246;SHT30;57637;49.272;8.590;2023-06-22T10:31:27;29.70;56.06
70246;SHT30;57637;49.272;8.590;2023-06-22T10:33:53;29.79;56.79
70246;SHT30;57637;49.272;8.590;2023-06-22T10:36:19;30.27;56.23
70246;SHT30;57637;49.272;8.590;2023-06-22T10:38:45;30.24;55.61
70246;SHT30;57637;49.272;8.590;2023-06-22T10:41:12;30.24;54.95
70246;SHT30;57637;49.272;8.590;2023-06-22T10:43:37;30.11;55.34
70246;SHT30;57637;49.272;8.590;2023-06-22T10:46:02;29.99;55.91
70246;SHT30;57637;49.272;8.590;2023-06-22T10:48:28;29.66;55.59
70246;SHT30;57637;49.272;8.590;2023-06-22T10:50:53;29.67;55.80
70246;SHT30;57637;49.272;8.590;2023-06-22T10:53:19;29.59;56.38
70246;SHT30;57637;49.272;8.590;2023-06-22T10:55:45;29.63;56.11
70246;SHT30;57637;49.272;8.590;2023-06-22T10:58:10;30.35;55.98
70246;SHT30;57637;49.272;8.590;2023-06-22T11:00:35;30.51;54.84
70246;SHT30;57637;49.272;8.590;2023-06-22T11:03:01;30.48;55.35
70246;SHT30;57637;49.272;8.590;2023-06-22T11:05:26;30.60;54.72
70246;SHT30;57637;49.272;8.590;2023-06-22T11:07:52;30.13;54.61
70246;SHT30;57637;49.272;8.590;2023-06-22T11:10:17;30.41;54.80
70246;SHT30;57637;49.272;8.590;2023-06-22T11:12:43;30.60;54.71
70246;SHT30;57637;49.272;8.590;2023-06-22T11:15:08;30.64;54.58
70246;SHT30;57637;49.272;8.590;2023-06-22T11:17:34;30.65;53.68
70246;SHT30;57637;49.272;8.590;2023-06-22T11:20:00;31.03;52.97
70246;SHT30;57637;49.272;8.590;2023-06-22T11:22:26;31.16;53.15
70246;SHT30;57637;49.272;8.590;2023-06-22T11:24:52;31.80;51.30
70246;SHT30;57637;49.272;8.590;2023-06-22T11:27:17;32.06;50.57
70246;SHT30;57637;49.272;8.590;2023-06-22T11:29:42;31.72;51.00
70246;SHT30;57637;49.272;8.590;2023-06-22T11:32:08;31.57;52.46
70246;SHT30;57637;49.272;8.590;2023-06-22T11:34:35;32.13;51.34
70246;SHT30;57637;49.272;8.590;2023-06-22T11:37:00;31.98;51.81
70246;SHT30;57637;49.272;8.590;2023-06-22T11:39:26;31.27;52.72
70246;SHT30;57637;49.272;8.590;2023-06-22T11:41:51;30.99;53.19
70246;SHT30;57637;49.272;8.590;2023-06-22T11:44:18;31.57;52.67
70246;SHT30;57637;49.272;8.590;2023-06-22T11:46:43;30.95;53.55
70246;SHT30;57637;49.272;8.590;2023-06-22T11:49:08;31.64;52.59
70246;SHT30;57637;49.272;8.590;2023-06-22T11:51:34;31.67;52.17
70246;SHT30;57637;49.272;8.590;2023-06-22T11:53:59;31.39;53.00
70246;SHT30;57637;49.272;8.590;2023-06-22T11:56:25;31.35;52.97
70246;SHT30;57637;49.272;8.590;2023-06-22T11:58:50;31.77;52.00
70246;SHT30;57637;49.272;8.590;2023-06-22T12:01:16;32.20;51.94
70246;SHT30;57637;49.272;8.590;2023-06-22T12:03:41;32.44;51.50
70246;SHT30;57637;49.272;8.590;2023-06-22T12:06:08;32.61;51.00
70246;SHT30;57637;49.272;8.590;2023-06-22T12:08:34;32.96;49.74
70246;SHT30;57637;49.272;8.590;2023-06-22T12:10:59;33.02;49.37
70246;SHT30;57637;49.272;8.590;2023-06-22T12:13:25;33.20;49.27
70246;SHT30;57637;49.272;8.590;2023-06-22T12:15:50;33.13;48.27
70246;SHT30;57637;49.272;8.590;2023-06-22T12:18:17;33.20;48.68
70246;SHT30;57637;49.272;8.590;2023-06-22T12:20:45;33.43;47.83
70246;SHT30;57637;49.272;8.590;2023-06-22T12:23:11;33.54;47.36
70246;SHT30;57637;49.272;8.590;2023-06-22T12:25:36;33.76;47.90
70246;SHT30;57637;49.272;8.590;2023-06-22T12:28:02;33.82;46.80
70246;SHT30;57637;49.272;8.590;2023-06-22T12:30:27;34.07;47.66
70246;SHT30;57637;49.272;8.590;2023-06-22T12:32:53;33.63;47.62
70246;SHT30;57637;49.272;8.590;2023-06-22T12:35:18;32.39;49.87
70246;SHT30;57637;49.272;8.590;2023-06-22T12:37:43;32.17;50.30
70246;SHT30;57637;49.272;8.590;2023-06-22T12:40:09;32.75;48.88
70246;SHT30;57637;49.272;8.590;2023-06-22T12:42:35;32.04;49.74
70246;SHT30;57637;49.272;8.590;2023-06-22T12:45:00;31.80;51.49
70246;SHT30;57637;49.272;8.590;2023-06-22T12:47:26;31.74;51.47
70246;SHT30;57637;49.272;8.590;2023-06-22T12:49:51;32.39;50.34
70246;SHT30;57637;49.272;8.590;2023-06-22T12:52:16;32.49;49.10
70246;SHT30;57637;49.272;8.590;2023-06-22T12:54:42;32.27;49.89
70246;SHT30;57637;49.272;8.590;2023-06-22T12:57:07;32.48;50.31
70246;SHT30;57637;49.272;8.590;2023-06-22T12:59:33;32.88;49.14
70246;SHT30;57637;49.272;8.590;2023-06-22T13:01:58;32.82;48.80
70246;SHT30;57637;49.272;8.590;2023-06-22T13:04:24;33.42;48.86
70246;SHT30;57637;49.272;8.590;2023-06-22T13:06:49;33.12;49.20
70246;SHT30;57637;49.272;8.590;2023-06-22T13:09:15;33.36;48.58
70246;SHT30;57637;49.272;8.590;2023-06-22T13:11:41;33.45;48.17
70246;SHT30;57637;49.272;8.590;2023-06-22T13:14:08;33.53;47.79
70246;SHT30;57637;49.272;8.590;2023-06-22T13:16:33;33.40;48.48
70246;SHT30;57637;49.272;8.590;2023-06-22T13:18:58;33.53;48.41
70246;SHT30;57637;49.272;8.590;2023-06-22T13:21:24;34.17;47.43
70246;SHT30;57637;49.272;8.590;2023-06-22T13:23:49;34.11;47.30
70246;SHT30;57637;49.272;8.590;2023-06-22T13:26:14;33.82;47.45
70246;SHT30;57637;49.272;8.590;2023-06-22T13:28:40;33.47;49.20
70246;SHT30;57637;49.272;8.590;2023-06-22T13:31:05;33.77;48.37
70246;SHT30;57637;49.272;8.590;2023-06-22T13:33:30;33.97;48.37
70246;SHT30;57637;49.272;8.590;2023-06-22T13:35:56;34.01;48.68
70246;SHT30;57637;49.272;8.590;2023-06-22T13:38:21;33.74;48.47
70246;SHT30;57637;49.272;8.590;2023-06-22T13:40:47;34.04;48.56
70246;SHT30;57637;49.272;8.590;2023-06-22T13:43:13;34.42;48.57
70246;SHT30;57637;49.272;8.590;2023-06-22T13:45:38;34.29;48.19
70246;SHT30;57637;49.272;8.590;2023-06-22T13:48:04;34.22;47.72
70246;SHT30;57637;49.272;8.590;2023-06-22T13:50:30;34.34;48.14
70246;SHT30;57637;49.272;8.590;2023-06-22T13:52:55;33.80;48.33
70246;SHT30;57637;49.272;8.590;2023-06-22T13:55:21;34.10;48.68
70246;SHT30;57637;49.272;8.590;2023-06-22T13:57:48;33.81;48.73
70246;SHT30;57637;49.272;8.590;2023-06-22T14:00:13;33.60;49.35
70246;SHT30;57637;49.272;8.590;2023-06-22T14:02:39;33.37;49.87
70246;SHT30;57637;49.272;8.590;2023-06-22T14:05:05;33.50;49.82
70246;SHT30;57637;49.272;8.590;2023-06-22T14:07:31;33.34;50.83
70246;SHT30;57637;49.272;8.590;2023-06-22T14:09:56;33.13;50.66
70246;SHT30;57637;49.272;8.590;2023-06-22T14:12:22;33.06;51.33
70246;SHT30;57637;49.272;8.590;2023-06-22T14:14:48;33.02;51.77
70246;SHT30;57637;49.272;8.590;2023-06-22T14:17:14;33.13;52.16
70246;SHT30;57637;49.272;8.590;2023-06-22T14:19:39;33.08;51.29
70246;SHT30;57637;49.272;8.590;2023-06-22T14:22:05;32.79;52.68
70246;SHT30;57637;49.272;8.590;2023-06-22T14:24:30;32.75;52.65
70246;SHT30;57637;49.272;8.590;2023-06-22T14:26:56;32.47;53.08
70246;SHT30;57637;49.272;8.590;2023-06-22T14:29:21;32.18;53.71
70246;SHT30;57637;49.272;8.590;2023-06-22T14:31:47;31.86;54.37
70246;SHT30;57637;49.272;8.590;2023-06-22T14:34:14;31.80;54.00
70246;SHT30;57637;49.272;8.590;2023-06-22T14:36:39;31.76;54.49
70246;SHT30;57637;49.272;8.590;2023-06-22T14:39:05;31.57;54.25
70246;SHT30;57637;49.272;8.590;2023-06-22T14:41:30;31.40;55.56
70246;SHT30;57637;49.272;8.590;2023-06-22T14:43:56;31.32;56.10
70246;SHT30;57637;49.272;8.590;2023-06-22T14:46:22;31.15;56.09
70246;SHT30;57637;49.272;8.590;2023-06-22T14:48:47;30.96;57.13
70246;SHT30;57637;49.272;8.590;2023-06-22T14:51:13;30.76;58.27
70246;SHT30;57637;49.272;8.590;2023-06-22T14:53:39;30.52;60.02
70246;SHT30;57637;49.272;8.590;2023-06-22T14:56:04;30.38;60.34
70246;SHT30;57637;49.272;8.590;2023-06-22T14:58:30;30.51;59.62
70246;SHT30;57637;49.272;8.590;2023-06-22T15:01:00;30.54;58.91
70246;SHT30;57637;49.272;8.590;2023-06-22T15:03:27;30.64;58.58
70246;SHT30;57637;49.272;8.590;2023-06-22T15:05:53;30.72;58.27
70246;SHT30;57637;49.272;8.590;2023-06-22T15:08:20;30.92;57.95
70246;SHT30;57637;49.272;8.590;2023-06-22T15:10:46;31.18;57.63
70246;SHT30;57637;49.272;8.590;2023-06-22T15:13:11;31.50;57.08
70246;SHT30;57637;49.272;8.590;2023-06-22T15:15:37;31.66;57.15
70246;SHT30;57637;49.272;8.590;2023-06-22T15:18:02;31.96;56.26
70246;SHT30;57637;49.272;8.590;2023-06-22T15:20:28;32.23;55.83
70246;SHT30;57637;49.272;8.590;2023-06-22T15:22:53;32.08;56.15
70246;SHT30;57637;49.272;8.590;2023-06-22T15:25:19;32.21;54.70
70246;SHT30;57637;49.272;8.590;2023-06-22T15:27:44;32.17;54.67
70246;SHT30;57637;49.272;8.590;2023-06-22T15:30:09;32.32;54.04
70246;SHT30;57637;49.272;8.590;2023-06-22T15:32:35;32.23;54.20
70246;SHT30;57637;49.272;8.590;2023-06-22T15:35:00;32.32;53.85
70246;SHT30;57637;49.272;8.590;2023-06-22T15:37:26;32.38;52.81
70246;SHT30;57637;49.272;8.590;2023-06-22T15:39:51;32.48;52.54
70246;SHT30;57637;49.272;8.590;2023-06-22T15:42:17;32.45;52.21